Meteo Giornale » Osservazioni meteo Kazakhstan » Uralsk
ore: 08:00 - Osservazioni Meteo Uralsk
Lat. 51° 15' N Lon. 51° 17' E Alt. 36 metri s.l.m.
10 °C
Nuvoloso
Temp. 24 Ore
7 °C
24 °C
Nord
7.2 Km/h
Dew point 1 °C
Umidità 53 %
Visibilità 10 Km
Il sole sorge alle ore 06:47
Il sole tramonta alle ore 20:21
| Data e Ora | Cielo e Fenomeni | T °C | DP °C | Um. % | Pres. hPa | Vis. km | Vento km/h | |
|---|---|---|---|---|---|---|---|---|
| Oggi h: 08:00 | Nuvoloso | 10 | 1 | 53 | 1021 | 10 | N 7.2 | |
| Oggi h: 07:30 | Nuvoloso | 8 | 0 | 56 | 1021 | 10 | S/SE 10.8 | |
| Oggi h: 07:00 | Nuvoloso | 7 | 0 | 60 | 1021 | 10 | S/SE 10.8 | |
| Oggi h: 06:30 | Nuvoloso | 7 | 1 | 65 | 1021 | 10 | N 7.2 | |
| Oggi h: 06:00 | Nuvoloso | 7 | 1 | 65 | 1021 | 10 | N 7.2 | |
| Oggi h: 05:30 | Nuvoloso | 7 | 1 | 65 | 1021 | 10 | S/SE 10.8 | |
| Oggi h: 05:00 | Nuvoloso | 8 | 1 | 61 | 1021 | 10 | N 7.2 | |
| Oggi h: 04:30 | Nuvoloso | 9 | 1 | 57 | 1021 | 10 | N 7.2 | |
| Oggi h: 04:00 | Nuvoloso | 8 | 1 | 61 | 1021 | 10 | S/SE 10.8 | |
| Oggi h: 03:30 | Poco Nuvoloso | 9 | 1 | 57 | 1021 | 10 | S/SE 14.4 | |
| Oggi h: 03:00 | Poco Nuvoloso | 9 | 1 | 57 | 1021 | 10 | S/SE 14.4 | |
| Oggi h: 02:30 | Poco Nuvoloso | 9 | 1 | 57 | 1021 | 10 | S/SE 10.8 | |
| Oggi h: 02:00 | Poco Nuvoloso | 10 | 1 | 53 | 1021 | 10 | S/SE 14.4 | |
| Oggi h: 01:30 | Sereno | 10 | 0 | 49 | 1021 | 10 | N 7.2 | |
| Oggi h: 01:00 | Sereno | 10 | 0 | 49 | 1022 | 10 | N 7.2 | |
| Oggi h: 00:30 | Sereno | 11 | 0 | 46 | 1022 | 10 | N 3.6 | |
| Oggi h: 00:00 | Sereno | 11 | 0 | 46 | 1022 | 10 | SE 10.8 | |
| Ieri h: 23:30 | Sereno | 11 | -1 | 43 | 1022 | 10 | S/SE 10.8 | |
| Ieri h: 23:00 | Sereno | 13 | 0 | 40 | 1022 | 10 | N 7.2 | |
| Ieri h: 22:30 | Sereno | 15 | 0 | 35 | 1022 | 10 | S/SE 10.8 | |
| Ieri h: 22:00 | Sereno | 15 | 2 | 41 | 1021 | 10 | S/SE 14.4 | |
| Ieri h: 21:30 | Sereno | 15 | 1 | 38 | 1021 | 10 | S/SE 10.8 | |
| Ieri h: 21:00 | Sereno | 17 | 1 | 33 | 1021 | 10 | S/SE 10.8 | |
| Ieri h: 20:30 | Sereno | 21 | 1 | 26 | 1021 | 10 | N 3.6 | |
| Ieri h: 20:00 | Sereno | 22 | 1 | 24 | 1021 | 10 | N 0 | |
| Ieri h: 19:30 | Sereno | 23 | 1 | 23 | 1021 | 10 | N 0 | |
| Ieri h: 19:00 | Sereno | 23 | 1 | 23 | 1021 | 10 | N/NO 10.8 | |
| Ieri h: 18:30 | Sereno | 24 | 1 | 22 | 1021 | 10 | O 10.8 | |
| Ieri h: 18:00 | Sereno | 24 | 1 | 22 | 1021 | 10 | O/NO 14.4 | |
| Ieri h: 17:30 | Sereno | 24 | 1 | 22 | 1022 | 10 | O/NO 18 | |
| Ieri h: 17:00 | Sereno | 24 | 1 | 22 | 1022 | 10 | NO 14.4 | |
| Ieri h: 16:30 | Sereno | 24 | 2 | 23 | 1022 | 10 | O/NO 10.8 | |
| Ieri h: 16:00 | Sereno | 24 | 3 | 25 | 1022 | 10 | O 10.8 | |
| Ieri h: 15:30 | Sereno | 24 | 3 | 25 | 1022 | 10 | N/NO 10.8 | |
| Ieri h: 15:00 | Sereno | 23 | 2 | 25 | 1023 | 10 | O 10.8 | |
| Ieri h: 14:30 | Sereno | 23 | 3 | 26 | 1023 | 10 | N 7.2 | |
| Ieri h: 14:00 | Sereno | 22 | 3 | 28 | 1023 | 10 | O 14.4 | |
| Ieri h: 13:30 | Sereno | 22 | 2 | 26 | 1023 | 10 | NO 14.4 | |
| Ieri h: 13:00 | Sereno | 22 | 3 | 28 | 1024 | 10 | O 10.8 | |
| Ieri h: 12:30 | Sereno | 21 | 2 | 28 | 1024 | 10 | N/NO 10.8 | |
| Ieri h: 12:00 | Sereno | 20 | 2 | 30 | 1024 | 10 | N 7.2 | |
| Ieri h: 11:30 | Sereno | 19 | 2 | 32 | 1024 | 10 | N 7.2 | |
| Ieri h: 11:00 | Sereno | 18 | 2 | 34 | 1025 | 10 | N 7.2 | |
| Ieri h: 10:30 | Sereno | 17 | 2 | 36 | 1025 | 10 | N 7.2 | |
| Ieri h: 10:00 | Sereno | 16 | 2 | 38 | 1025 | 10 | N 7.2 | |
| Ieri h: 09:30 | Sereno | 14 | 2 | 44 | 1025 | 10 | N 7.2 | |
| Ieri h: 09:00 | Sereno | 12 | 1 | 46 | 1025 | 10 | N 3.6 | |



